ADDS METAR Data INFO
IDs: Format: Raw Decoded Include TAF

Data at: 0158 UTC 17 Oct 2017

KAHQ 170155Z AUTO 16005KT 10SM CLR 12/05 A3010 RMK AO2 T01200046
KAHQ 170135Z AUTO 16006KT 10SM CLR 13/05 A3010 RMK AO2 T01250047
KAHQ 170115Z AUTO 16007KT 10SM CLR 14/05 A3011 RMK AO2 T01370045
KAHQ 170055Z AUTO 16008KT 10SM CLR 14/04 A3010 RMK AO2 T01380043
KAHQ 170035Z AUTO 17008KT 10SM CLR 15/05 A3010 RMK AO2 T01450045
KAHQ 170015Z AUTO 17007KT 10SM CLR 16/05 A3010 RMK AO2 T01560047
KAHQ 162355Z AUTO 17008KT 10SM CLR 17/04 A3010 RMK AO2 T01710042 10241 20171
KAHQ 162335Z AUTO 18009KT 10SM CLR 20/03 A3010 RMK AO2 T01960030
KAHQ 162315Z AUTO 20010G20KT 10SM CLR 21/02 A3010 RMK AO2 T02140023
KAHQ 162255Z AUTO 20012G16KT 10SM CLR 22/03 A3011 RMK AO2 T02230026
KAHQ 162235Z AUTO 20013G22KT 10SM CLR 23/02 A3011 RMK AO2 T02310017
KAHQ 162215Z AUTO 20013G19KT 10SM CLR 23/02 A3011 RMK AO2 T02310018
KAHQ 162155Z AUTO 20014G19KT 10SM CLR 24/02 A3011 RMK AO2 T02370015
KAHQ 162135Z AUTO 21012G17KT 10SM CLR 24/01 A3012 RMK AO2 T02380013
KAHQ 162115Z AUTO 20013G19KT 10SM CLR 24/01 A3012 RMK AO2 T02400014
KAHQ 162055Z AUTO 20015G20KT 10SM CLR 24/01 A3013 RMK AO2 T02400013
KAHQ 162035Z AUTO 20016KT 10SM CLR 24/01 A3014 RMK AO2 T02410009
KAHQ 162015Z AUTO 21014G19KT 10SM CLR 24/01 A3015 RMK AO2 T02370014
KAHQ 161955Z AUTO 20017G24KT 10SM CLR 23/01 A3016 RMK AO2 T02310014
KAHQ 161935Z AUTO 20014G21KT 10SM CLR 23/02 A3017 RMK AO2 T02270016
KAHQ 161915Z AUTO 22014G19KT 10SM CLR 23/02 A3018 RMK AO2 T02250015
KAHQ 161855Z AUTO 20016G21KT 10SM CLR 22/02 A3020 RMK AO2 T02210023
KAHQ 161835Z AUTO 20016G20KT 10SM CLR 22/02 A3022 RMK AO2 T02180019
KAHQ 161815Z AUTO 19014G19KT 10SM CLR 21/02 A3023 RMK AO2 T02130016
KAHQ 161755Z AUTO 20009G16KT 10SM CLR 21/02 A3024 RMK AO2 T02070024 10207 20012
KAHQ 161735Z AUTO 20012G19KT 10SM CLR 20/02 A3025 RMK AO2 T02010024
KAHQ 161715Z AUTO 20009G15KT 10SM CLR 19/02 A3027 RMK AO2 T01940019
KAHQ 161655Z AUTO 19010G14KT 10SM CLR 18/03 A3028 RMK AO2 T01810027
KAHQ 161635Z AUTO 18011KT 10SM CLR 17/03 A3029 RMK AO2 T01700026
KAHQ 161615Z AUTO 18009KT 10SM CLR 16/03 A3029 RMK AO2 T01620028
KAHQ 161555Z AUTO 18010KT 10SM CLR 16/04 A3030 RMK AO2 T01560035
KAHQ 161535Z AUTO 17009KT 10SM CLR 14/04 A3031 RMK AO2 T01420038
KAHQ 161515Z AUTO 17007KT 10SM CLR 13/05 A3031 RMK AO2 T01280047
KAHQ 161455Z AUTO 17004KT 10SM CLR 11/05 A3032 RMK AO2 T01070045
KAHQ 161435Z AUTO 17004KT 10SM CLR 09/04 A3032 RMK AO2 T00870040
KAHQ 161415Z AUTO 18004KT 10SM CLR 07/04 A3032 RMK AO2 T00670035
KAHQ 161355Z AUTO 00000KT 10SM CLR 05/03 A3033 RMK AO2 T00490033
KAHQ 161335Z AUTO 00000KT 10SM CLR 03/02 A3033 RMK AO2 T00300019
KAHQ 161315Z AUTO 00000KT 10SM CLR 02/01 A3033 RMK AO2 T00170008
KAHQ 161255Z AUTO 14004KT 10SM CLR 02/01 A3033 RMK AO2 T00150007
KAHQ 161235Z AUTO 00000KT 10SM CLR 02/01 A3033 RMK AO2 T00160008
KAHQ 161215Z AUTO 13004KT 10SM CLR 01/01 A3033 RMK AO2 T00130005
KAHQ 161155Z AUTO 16003KT 10SM CLR 02/01 A3033 RMK AO2 T00150005 10049 20012
KAHQ 161135Z AUTO 00000KT 10SM CLR 02/00 A3033 RMK AO2 T00160004
KAHQ 161115Z AUTO 00000KT 10SM CLR 02/00 A3033 RMK AO2 T00150003
KAHQ 161055Z AUTO 00000KT 10SM CLR 02/01 A3033 RMK AO2 T00230010
KAHQ 161035Z AUTO 00000KT 10SM CLR 02/01 A3033 RMK AO2 T00220008
KAHQ 161015Z AUTO 00000KT 10SM CLR 02/01 A3033 RMK AO2 T00230007
KAHQ 160955Z AUTO 00000KT 10SM CLR 02/01 A3033 RMK AO2 T00190005
KAHQ 160935Z AUTO 00000KT 10SM CLR 02/01 A3032 RMK AO2 T00200007
KAHQ 160915Z AUTO 21003KT 10SM CLR 03/01 A3033 RMK AO2 T00310007
KAHQ 160855Z AUTO 22006KT 10SM CLR 02/01 A3033 RMK AO2 T00230013
KAHQ 160835Z AUTO 16004KT 10SM CLR 02/01 A3034 RMK AO2 T00200005
KAHQ 160815Z AUTO 20003KT 10SM CLR 04/01 A3034 RMK AO2 T00360006
KAHQ 160755Z AUTO 22003KT 10SM CLR 04/01 A3034 RMK AO2 T00440010
KAHQ 160735Z AUTO 00000KT 10SM CLR 04/01 A3034 RMK AO2 T00360009
KAHQ 160715Z AUTO 00000KT 10SM CLR 04/01 A3034 RMK AO2 T00390013
KAHQ 160655Z AUTO 00000KT 10SM CLR 04/01 A3034 RMK AO2 T00380013
KAHQ 160635Z AUTO 00000KT 10SM CLR 04/02 A3034 RMK AO2 T00400015
KAHQ 160615Z AUTO 00000KT 10SM CLR 05/01 A3034 RMK AO2 T00460013
KAHQ 160555Z AUTO 27003KT 10SM CLR 04/02 A3034 RMK AO2 T00430016 10132 20042 401690037
KAHQ 160535Z AUTO 00000KT 10SM CLR 05/02 A3035 RMK AO2 T00450016
KAHQ 160515Z AUTO 28003KT 10SM CLR 06/02 A3035 RMK AO2 T00640015
KAHQ 160455Z AUTO 26003KT 10SM CLR 06/01 A3035 RMK AO2 T00590013
KAHQ 160435Z AUTO 00000KT 10SM CLR 05/02 A3035 RMK AO2 T00500020
KAHQ 160415Z AUTO 32003KT 10SM CLR 06/01 A3035 RMK AO2 T00640012
KAHQ 160355Z AUTO 31003KT 10SM CLR 06/02 A3034 RMK AO2 T00600015
KAHQ 160335Z AUTO 00000KT 10SM CLR 07/02 A3034 RMK AO2 T00730020
KAHQ 160315Z AUTO 00000KT 10SM CLR 09/02 A3034 RMK AO2 T00860021
KAHQ 160255Z AUTO 27004KT 10SM CLR 08/02 A3033 RMK AO2 T00820022
KAHQ 160235Z AUTO 00000KT 10SM CLR 09/02 A3032 RMK AO2 T00900020
KAHQ 160215Z AUTO 00000KT 10SM CLR 10/02 A3032 RMK AO2 T01020021
KAHQ 160155Z AUTO 26003KT 10SM CLR 10/02 A3032 RMK AO2 T00980021
KAHQ 160135Z AUTO 27003KT 10SM CLR 11/02 A3031 RMK AO2 T01070021
KAHQ 160115Z AUTO 26004KT 10SM CLR 10/02 A3031 RMK AO2 T01010015
KAHQ 160055Z AUTO 00000KT 10SM CLR 11/03 A3030 RMK AO2 T01100025
KAHQ 160035Z AUTO 00000KT 10SM CLR 11/03 A3030 RMK AO2 T01050031
KAHQ 160015Z AUTO 24004KT 10SM CLR 13/01 A3029 RMK AO2 T01280010
KAHQ 152355Z AUTO 22004KT 10SM CLR 13/01 A3029 RMK AO2 T01310005 10169 20130
KAHQ 152335Z AUTO 22004KT 10SM CLR 15/01 A3029 RMK AO2 T01460009
KAHQ 152315Z AUTO 26004KT 10SM CLR 16/00 A3029 RMK AO2 T01570000
KAHQ 152255Z AUTO 26005KT 10SM CLR 16/M01 A3030 RMK AO2 T01631006
KAHQ 152235Z AUTO 27009KT 10SM CLR 17/00 A3030 RMK AO2 T01661005
KAHQ 152215Z AUTO 27008KT 10SM CLR 17/M01 A3030 RMK AO2 T01661007
KAHQ 152155Z AUTO 28008KT 10SM CLR 17/00 A3031 RMK AO2 T01681002
KAHQ 152135Z AUTO 28007KT 10SM CLR 17/00 A3031 RMK AO2 T01671004
KAHQ 152115Z AUTO 29010G15KT 10SM CLR 17/00 A3031 RMK AO2 T01691004
KAHQ 152055Z AUTO 29012G15KT 10SM CLR 17/00 A3032 RMK AO2 T01661003
KAHQ 152035Z AUTO 30010G16KT 10SM CLR 17/M01 A3032 RMK AO2 T01651008
KAHQ 152015Z AUTO 28009G15KT 10SM CLR 16/00 A3032 RMK AO2 T01611003
KAHQ 151955Z AUTO 28009KT 10SM CLR 16/00 A3033 RMK AO2 T01591002
KAHQ 151935Z AUTO 27009KT 10SM CLR 15/M01 A3033 RMK AO2 T01541009
KAHQ 151915Z AUTO 27004KT 10SM CLR 15/00 A3034 RMK AO2 T01501004
KAHQ 151855Z AUTO 28008KT 10SM CLR 15/00 A3034 RMK AO2 T01450000
KAHQ 151835Z AUTO 31006KT 10SM CLR 14/00 A3035 RMK AO2 T01401004
KAHQ 151815Z AUTO 32005KT 10SM CLR 14/00 A3036 RMK AO2 T01350000
KAHQ 151755Z AUTO 30005KT 10SM CLR 13/01 A3037 RMK AO2 T01290005 10131 20037
KAHQ 151735Z AUTO 31009G14KT 10SM CLR 13/01 A3038 RMK AO2 T01290013
KAHQ 151715Z AUTO 30011KT 10SM CLR 12/01 A3038 RMK AO2 T01230013
KAHQ 151655Z AUTO 32007KT 10SM CLR 12/02 A3039 RMK AO2 T01190017
KAHQ 151635Z AUTO 32008G14KT 10SM CLR 11/01 A3038 RMK AO2 T01100014
KAHQ 151615Z AUTO 32010G14KT 10SM CLR 10/02 A3038 RMK AO2 T01040016
KAHQ 151555Z AUTO 33007KT 10SM CLR 10/02 A3038 RMK AO2 T00980020
KAHQ 151535Z AUTO 32009KT 290V350 10SM CLR 09/02 A3037 RMK AO2 T00910020
KAHQ 151515Z AUTO 32007KT 10SM CLR 09/02 A3036 RMK AO2 T00850017
KAHQ 151455Z AUTO 33010G15KT 10SM CLR 08/02 A3036 RMK AO2 T00790016
KAHQ 151435Z AUTO 31010G14KT 10SM CLR 07/02 A3035 RMK AO2 T00720019
KAHQ 151415Z AUTO 32009KT 10SM CLR 07/02 A3034 RMK AO2 T00660020